createdAt,value
2022-12-18T00:09:15.486Z,32.30
2022-12-18T00:19:19.433Z,37.80
2022-12-18T00:29:23.401Z,37.40
2022-12-18T00:39:27.393Z,31.10
2022-12-18T00:49:31.689Z,36.90
2022-12-18T00:59:35.954Z,29.80
2022-12-18T01:09:39.695Z,33.30
2022-12-18T01:19:43.436Z,26.90
2022-12-18T01:29:47.780Z,22.50
2022-12-18T01:39:51.536Z,26.00
2022-12-18T01:49:59.942Z,30.20
2022-12-18T02:00:12.565Z,25.80
2022-12-18T02:10:30.698Z,24.00
2022-12-18T02:21:17.309Z,23.60
2022-12-18T02:31:29.106Z,25.00
2022-12-18T02:41:33.399Z,21.90
2022-12-18T02:52:04.916Z,21.20
2022-12-18T03:02:17.773Z,22.40
2022-12-18T03:12:49.299Z,19.60
2022-12-18T03:22:58.971Z,16.90
2022-12-18T03:33:21.073Z,21.60
2022-12-18T03:43:45.352Z,19.90
2022-12-18T03:54:01.719Z,18.00
2022-12-18T04:04:11.587Z,20.10
2022-12-18T04:14:18.277Z,19.60
2022-12-18T04:24:25.874Z,16.60
2022-12-18T04:34:39.763Z,17.40
2022-12-18T04:44:44.554Z,17.10
2022-12-18T04:54:49.030Z,20.80
2022-12-18T05:04:52.794Z,22.90
2022-12-18T05:14:56.664Z,20.30
2022-12-18T05:25:01.253Z,21.20
2022-12-18T05:35:06.436Z,22.20
2022-12-18T05:45:10.857Z,23.90
2022-12-18T05:55:14.610Z,24.50
2022-12-18T06:05:18.876Z,23.40
2022-12-18T06:15:22.865Z,22.80
2022-12-18T06:25:27.474Z,19.70
2022-12-18T06:35:31.154Z,25.00
2022-12-18T06:45:35.481Z,24.90
2022-12-18T06:55:39.233Z,21.60
2022-12-18T07:05:43.806Z,18.40
2022-12-18T07:15:47.611Z,21.30
2022-12-18T07:25:51.328Z,24.30
2022-12-18T07:35:55.239Z,25.50
2022-12-18T07:45:59.024Z,22.60
2022-12-18T07:56:27.618Z,24.60
2022-12-18T08:06:32.504Z,25.50
2022-12-18T08:16:36.668Z,25.00
2022-12-18T08:26:41.106Z,26.70
2022-12-18T08:36:44.902Z,27.50
2022-12-18T08:46:48.929Z,27.50
2022-12-18T08:56:53.637Z,24.90
2022-12-18T09:06:57.988Z,25.10
2022-12-18T09:17:02.433Z,29.10
2022-12-18T09:27:06.870Z,28.30
2022-12-18T09:37:11.403Z,30.50
2022-12-18T09:47:37.097Z,23.90
2022-12-18T09:57:47.127Z,27.00
2022-12-18T10:08:01.005Z,21.10
2022-12-18T10:18:25.767Z,17.70
2022-12-18T10:28:32.501Z,18.40
2022-12-18T10:38:36.764Z,21.40
2022-12-18T10:48:41.701Z,16.70
2022-12-18T10:58:58.028Z,17.30
2022-12-18T11:09:13.268Z,16.50
2022-12-18T11:19:42.496Z,17.20
2022-12-18T11:29:47.284Z,16.50
2022-12-18T11:39:57.291Z,15.40
2022-12-18T11:50:04.009Z,13.90
2022-12-18T12:00:18.147Z,17.00
2022-12-18T12:10:32.433Z,17.90
2022-12-18T12:20:55.546Z,18.80
2022-12-18T12:31:31.677Z,19.20
2022-12-18T12:41:57.304Z,18.20
2022-12-18T12:52:12.548Z,18.40
2022-12-18T13:02:48.022Z,18.20
2022-12-18T13:12:59.193Z,20.00
2022-12-18T13:23:20.831Z,20.80
2022-12-18T13:33:26.446Z,24.90
2022-12-18T13:43:45.026Z,19.90
2022-12-18T13:54:02.250Z,18.20
2022-12-18T14:04:18.903Z,15.80
2022-12-18T14:14:26.890Z,20.80
2022-12-18T14:24:36.167Z,20.40
2022-12-18T14:34:40.428Z,24.80
2022-12-18T14:45:12.840Z,21.80
2022-12-18T14:55:17.768Z,21.70
2022-12-18T15:05:32.944Z,22.00
2022-12-18T15:15:37.890Z,28.60
2022-12-18T15:36:11.171Z,33.60
2022-12-18T15:46:23.100Z,30.00
2022-12-18T15:56:49.501Z,25.70
2022-12-18T16:07:14.394Z,32.00
2022-12-18T16:17:21.723Z,39.30
2022-12-18T16:27:26.892Z,33.80
2022-12-18T16:37:33.235Z,46.40
2022-12-18T16:47:40.802Z,43.50
2022-12-18T16:57:47.374Z,44.40
2022-12-18T17:07:54.067Z,48.70
2022-12-18T17:18:02.534Z,40.50
2022-12-18T17:28:11.355Z,42.20
2022-12-18T17:38:17.965Z,42.60
2022-12-18T17:48:23.737Z,46.20
2022-12-18T17:58:30.679Z,41.40
2022-12-18T18:08:38.140Z,57.10
2022-12-18T18:18:44.991Z,45.30
2022-12-18T18:28:51.212Z,49.30
2022-12-18T18:38:56.685Z,57.50
2022-12-18T18:49:02.110Z,59.00
2022-12-18T18:59:07.612Z,55.40
2022-12-18T19:09:14.026Z,52.50
2022-12-18T19:19:41.755Z,62.80
2022-12-18T19:30:07.329Z,56.30
2022-12-18T19:40:13.399Z,55.90
2022-12-18T19:50:21.094Z,51.00
2022-12-18T20:00:26.478Z,51.20
2022-12-18T20:10:33.288Z,50.90
2022-12-18T20:20:39.022Z,49.90
2022-12-18T20:30:46.281Z,52.90
2022-12-18T20:40:54.641Z,52.70
2022-12-18T20:51:21.270Z,46.80
2022-12-18T21:01:29.681Z,50.20
2022-12-18T21:11:53.226Z,61.60
2022-12-18T21:32:03.118Z,55.40
2022-12-18T21:42:26.179Z,50.70
2022-12-18T21:52:31.961Z,51.60
2022-12-18T22:02:36.766Z,62.90
2022-12-18T22:12:44.396Z,62.40
2022-12-18T22:22:52.300Z,55.80
2022-12-18T22:32:56.306Z,53.40
2022-12-18T22:43:00.103Z,48.80
2022-12-18T22:53:04.271Z,35.40
2022-12-18T23:03:10.304Z,48.30
2022-12-18T23:13:14.765Z,41.00
2022-12-18T23:23:18.922Z,48.90
2022-12-18T23:33:23.407Z,45.20
2022-12-18T23:43:28.204Z,43.60
2022-12-18T23:53:32.372Z,43.40
